Terminal Aerodrome Forecast
Issued by NWS Topeka, KS

Home | Current Version | Previous Version | Text Only | Print | Product List | Glossary On
Versions: 1 2 3 4 5 6 7 8 9 10 11 12 13 14 15 16 17 18 19
000
FTUS43 KTOP 241720
TAFTOP
TAF
KTOP 241720Z 2418/2518 33010KT P6SM SCT035 BKN060
     FM250100 VRB03KT P6SM FEW200
     FM251300 17008KT P6SM FEW200=

USA.gov is the U.S. government's official web portal to all federal, state and local government web resources and services.